Time;durP1;ratioP1;P1;durP2;ratioP2;P2;SDS_P1;SDS_P2;PMS_P1;PMS_P2;Temp;Humidity;BMP_temperature;BMP_pressure;BME280_temperature;BME280_humidity;BME280_pressure;Samples;Min_cycle;Max_cycle;Signal;HPM_P1;HPM_P2
2022/04/08 00:02:19;;;;;;;2.97;0.68;;;15.70;47.90;15.00;98829.00;;;;5055342;28;20492;-65
2022/04/08 00:05:08;;;;;;;2.35;0.63;;;15.70;48.00;15.00;98847.00;;;;5042537;28;20032;-65
2022/04/08 00:07:54;;;;;;;3.38;0.73;;;15.80;48.10;15.00;98850.00;;;;5033653;28;20532;-65
2022/04/08 00:10:40;;;;;;;3.33;0.82;;;15.70;48.00;15.00;98871.00;;;;5053314;28;20041;-65
2022/04/08 00:13:26;;;;;;;4.60;0.88;;;15.70;48.80;15.00;98868.00;;;;5058906;28;20041;-65
2022/04/08 00:16:12;;;;;;;3.75;0.70;;;15.70;48.20;15.00;98875.00;;;;5061377;28;20036;-65
2022/04/08 00:18:58;;;;;;;5.20;0.73;;;15.70;48.30;15.00;98880.00;;;;5056328;28;20045;-65
2022/04/08 00:21:48;;;;;;;2.60;0.70;;;15.80;48.50;15.00;98889.00;;;;5054882;28;20447;-65
2022/04/08 00:24:34;;;;;;;3.33;0.98;;;15.70;48.50;15.00;98900.00;;;;5049289;28;20048;-65
2022/04/08 00:27:20;;;;;;;2.97;0.80;;;15.70;48.60;15.00;98919.00;;;;5054156;28;20462;-65
2022/04/08 00:30:07;;;;;;;5.43;0.90;;;15.70;48.70;15.00;98921.00;;;;5056518;28;20144;-65
2022/04/08 00:32:56;;;;;;;4.53;0.85;;;15.70;48.70;15.00;98930.00;;;;5057959;28;20079;-65
2022/04/08 00:35:43;;;;;;;5.35;0.70;;;15.70;48.80;15.00;98928.00;;;;5058968;28;20037;-65
2022/04/08 00:38:29;;;;;;;7.22;1.38;;;15.70;48.80;15.00;98942.00;;;;5039888;28;20037;-65
2022/04/08 00:41:15;;;;;;;2.97;0.77;;;15.70;48.80;15.00;98959.00;;;;5047021;28;20036;-65
2022/04/08 00:44:01;;;;;;;1.80;0.40;;;15.70;48.90;15.00;98956.00;;;;5058070;28;20142;-65
2022/04/08 00:46:47;;;;;;;1.05;0.65;;;15.70;48.80;15.00;98953.00;;;;5057125;28;20044;-65
2022/04/08 00:49:33;;;;;;;2.40;0.43;;;15.80;49.10;15.00;98959.00;;;;5061952;28;20039;-65
2022/04/08 00:52:20;;;;;;;3.97;0.57;;;15.70;48.90;15.00;98971.00;;;;5041882;28;20128;-65
2022/04/08 00:55:06;;;;;;;0.80;0.30;;;15.70;48.90;15.00;98980.00;;;;5064232;28;20052;-65
2022/04/08 00:57:52;;;;;;;1.35;0.40;;;15.70;49.00;15.00;98974.00;;;;5047908;28;20028;-65
2022/04/08 01:00:38;;;;;;;1.77;0.50;;;15.70;49.00;15.00;98987.00;;;;5055909;28;20032;-65
2022/04/08 01:03:24;;;;;;;1.50;0.40;;;15.80;49.10;15.10;98995.00;;;;5041594;28;20044;-65
2022/04/08 01:06:10;;;;;;;1.23;0.45;;;15.70;49.00;15.00;98995.00;;;;5064542;28;20041;-65
2022/04/08 01:08:57;;;;;;;4.25;0.35;;;15.70;49.00;15.00;98999.00;;;;5059195;28;20041;-65
2022/04/08 01:11:43;;;;;;;2.60;0.45;;;15.70;49.00;15.00;99003.00;;;;5057695;28;20484;-65
2022/04/08 01:14:29;;;;;;;3.90;0.40;;;15.80;49.20;15.00;99016.00;;;;5044146;28;20394;-65
2022/04/08 01:17:15;;;;;;;1.83;0.47;;;15.70;49.00;15.00;99030.00;;;;5058702;28;20041;-65
2022/04/08 01:20:01;;;;;;;4.90;0.80;;;15.70;49.10;15.00;99030.00;;;;5066695;28;20098;-65
2022/04/08 01:22:47;;;;;;;2.35;0.30;;;15.70;49.00;15.00;99044.00;;;;5053580;28;20123;-65
2022/04/08 01:25:33;;;;;;;2.28;0.50;;;15.70;49.10;15.00;99055.00;;;;5058034;28;20055;-65
2022/04/08 01:28:19;;;;;;;1.75;0.40;;;15.80;49.20;15.00;99062.00;;;;5041207;28;20036;-65
2022/04/08 01:31:06;;;;;;;2.20;0.40;;;15.70;49.10;15.00;99074.00;;;;5058292;28;20048;-65
2022/04/08 01:33:52;;;;;;;2.17;0.50;;;15.80;49.20;15.00;99072.00;;;;5061241;28;20049;-65
2022/04/08 01:36:38;;;;;;;1.02;0.30;;;15.70;49.10;15.00;99075.00;;;;5054248;28;20124;-65
2022/04/08 01:39:24;;;;;;;2.03;0.30;;;15.70;49.00;15.00;99084.00;;;;5047429;28;20075;-65
2022/04/08 01:42:10;;;;;;;0.57;0.20;;;15.70;49.00;15.00;99083.00;;;;5063645;28;20044;-65
2022/04/08 01:44:56;;;;;;;2.22;0.57;;;15.70;49.00;15.00;99086.00;;;;5043117;28;20036;-65
2022/04/08 01:47:42;;;;;;;1.13;0.30;;;15.70;49.00;15.00;99088.00;;;;5065115;28;20039;-65
2022/04/08 01:50:29;;;;;;;0.98;0.20;;;15.70;49.00;15.00;99104.00;;;;5058333;28;20044;-65
2022/04/08 01:53:15;;;;;;;0.98;0.30;;;15.70;49.00;15.00;99097.00;;;;5054415;28;20045;-65
2022/04/08 01:56:01;;;;;;;1.15;0.25;;;15.70;49.10;15.00;99108.00;;;;5046608;28;20036;-65
2022/04/08 01:58:47;;;;;;;1.08;0.30;;;15.70;49.00;15.00;99113.00;;;;5057041;28;20518;-65
2022/04/08 02:01:34;;;;;;;1.02;0.30;;;15.70;49.00;15.00;99120.00;;;;5057388;28;20035;-65
2022/04/08 02:04:20;;;;;;;1.00;0.35;;;15.70;49.00;15.00;99129.00;;;;5056945;28;20041;-65
2022/04/08 02:07:06;;;;;;;0.47;0.10;;;15.70;48.90;15.00;99138.00;;;;5060030;28;20644;-65
2022/04/08 02:09:52;;;;;;;1.98;0.20;;;15.70;49.00;15.00;99135.00;;;;5060602;28;20052;-65
2022/04/08 02:12:39;;;;;;;1.08;0.20;;;15.70;48.90;15.00;99150.00;;;;5059203;28;20090;-65
2022/04/08 02:15:47;;;;;;;1.73;0.28;;;15.70;49.00;15.00;99157.00;;;;5059588;28;20071;-65
2022/04/08 02:18:33;;;;;;;0.30;0.10;;;15.70;48.80;14.90;99160.00;;;;5060255;28;20044;-65
2022/04/08 02:21:20;;;;;;;1.27;0.30;;;15.70;48.80;14.90;99172.00;;;;5058129;28;20087;-65
2022/04/08 02:24:06;;;;;;;1.40;0.30;;;15.70;49.00;14.90;99176.00;;;;5043085;28;20044;-65
2022/04/08 02:26:52;;;;;;;0.47;0.10;;;15.70;49.00;14.90;99184.00;;;;5027931;28;20069;-65
2022/04/08 02:29:38;;;;;;;0.77;0.20;;;15.60;49.00;14.90;99190.00;;;;5051703;28;20044;-65
2022/04/08 02:32:25;;;;;;;0.60;0.25;;;15.60;49.00;14.90;99204.00;;;;5041363;28;20049;-65
2022/04/08 02:35:11;;;;;;;0.88;0.17;;;15.60;49.00;14.90;99203.00;;;;5055348;28;20111;-65
2022/04/08 02:37:57;;;;;;;1.00;0.10;;;15.60;48.90;14.90;99202.00;;;;5049538;28;20033;-65
2022/04/08 02:40:43;;;;;;;0.30;0.10;;;15.60;49.00;14.90;99207.00;;;;5043694;28;20441;-65
2022/04/08 02:43:29;;;;;;;0.65;0.10;;;15.60;49.00;15.00;99210.00;;;;5070231;28;20044;-65
2022/04/08 02:46:15;;;;;;;0.90;0.17;;;15.60;49.00;15.00;99215.00;;;;5051119;28;20044;-65
2022/04/08 02:49:01;;;;;;;1.52;0.10;;;15.60;49.00;15.00;99222.00;;;;5058700;28;20032;-65
2022/04/08 02:51:47;;;;;;;0.43;0.22;;;15.60;49.00;15.00;99220.00;;;;5056220;28;20033;-65
2022/04/08 02:54:33;;;;;;;0.45;0.20;;;15.70;48.80;15.00;99243.00;;;;5057047;28;20413;-65
2022/04/08 02:57:19;;;;;;;0.30;0.10;;;15.70;48.80;15.00;99235.00;;;;5063427;28;20036;-65
2022/04/08 03:00:06;;;;;;;0.98;0.20;;;15.70;48.90;15.00;99238.00;;;;5058728;28;20400;-65
2022/04/08 03:02:52;;;;;;;0.53;0.17;;;15.70;48.80;15.00;99239.00;;;;5040187;28;20045;-65
2022/04/08 03:05:39;;;;;;;0.85;0.10;;;15.70;48.80;15.00;99234.00;;;;5068247;28;20084;-65
2022/04/08 03:08:25;;;;;;;1.08;0.38;;;15.70;48.80;15.00;99245.00;;;;5061535;28;20478;-65
2022/04/08 03:11:11;;;;;;;0.47;0.20;;;15.70;48.60;15.00;99246.00;;;;5047486;28;20048;-65
2022/04/08 03:14:02;;;;;;;1.75;0.20;;;15.70;48.70;15.00;99243.00;;;;5052377;28;20044;-65
2022/04/08 03:16:48;;;;;;;3.45;0.25;;;15.70;48.70;15.00;99249.00;;;;5057314;28;20045;-65
2022/04/08 03:19:34;;;;;;;0.32;0.30;;;15.70;48.60;15.00;99254.00;;;;5053381;28;20154;-65
2022/04/08 03:22:20;;;;;;;2.33;0.47;;;15.70;48.50;14.90;99253.00;;;;5054074;28;20033;-65
2022/04/08 03:25:07;;;;;;;2.85;0.30;;;15.70;48.50;14.90;99247.00;;;;5053815;28;20044;-65
2022/04/08 03:27:53;;;;;;;5.45;0.52;;;15.70;48.50;14.90;99254.00;;;;5053587;28;20061;-65
2022/04/08 03:30:40;;;;;;;3.85;0.30;;;15.70;48.40;14.90;99258.00;;;;5058741;28;20116;-65
2022/04/08 03:33:27;;;;;;;3.58;0.50;;;15.70;48.50;14.90;99248.00;;;;5060805;28;20544;-65
2022/04/08 03:36:13;;;;;;;1.67;0.35;;;15.70;48.40;14.90;99261.00;;;;5062108;28;20127;-65
2022/04/08 03:38:59;;;;;;;1.25;0.40;;;15.70;48.40;14.90;99254.00;;;;5062594;28;20568;-65
2022/04/08 03:41:45;;;;;;;2.75;0.40;;;15.70;48.40;14.90;99264.00;;;;5050088;28;20040;-65
2022/04/08 03:44:31;;;;;;;2.67;0.30;;;15.70;48.30;14.90;99263.00;;;;5061925;28;20487;-65
2022/04/08 03:47:19;;;;;;;2.05;0.40;;;15.60;48.20;14.90;99260.00;;;;5052094;28;20032;-65
2022/04/08 03:50:05;;;;;;;;;;;15.60;48.20;14.90;99257.00;;;;5042223;28;20035;-65
2022/04/08 03:52:51;;;;;;;2.22;0.52;;;15.70;48.50;14.90;99272.00;;;;5057369;28;19923;-65
2022/04/08 03:55:37;;;;;;;2.40;0.47;;;15.70;48.10;14.90;99273.00;;;;5052419;28;20046;-65
2022/04/08 03:58:23;;;;;;;4.47;0.88;;;15.70;48.10;14.90;99281.00;;;;5062324;28;20033;-65
2022/04/08 04:01:10;;;;;;;5.57;0.70;;;15.60;47.90;14.90;99295.00;;;;5052935;28;20041;-65
2022/04/08 04:03:56;;;;;;;1.88;0.40;;;15.60;48.00;14.90;99304.00;;;;5051717;28;20187;-65
2022/04/08 04:06:42;;;;;;;3.42;0.40;;;15.60;47.90;14.90;99298.00;;;;5059622;28;20104;-65
2022/04/08 04:09:28;;;;;;;2.58;0.65;;;15.60;47.90;14.80;99295.00;;;;5045804;28;20135;-65
2022/04/08 04:12:14;;;;;;;0.85;0.40;;;15.60;47.60;14.80;99309.00;;;;5066697;28;20128;-65
2022/04/08 04:15:02;;;;;;;2.63;0.50;;;15.60;47.70;14.80;99310.00;;;;5054411;28;20083;-65
2022/04/08 04:17:48;;;;;;;3.97;0.82;;;15.60;47.90;14.80;99317.00;;;;5060314;28;20037;-65
2022/04/08 04:20:34;;;;;;;3.10;0.70;;;15.60;47.80;14.80;99324.00;;;;5057955;28;20051;-65
2022/04/08 04:23:20;;;;;;;4.00;1.77;;;15.50;47.70;14.80;99318.00;;;;5059615;28;20040;-66
2022/04/08 04:26:06;;;;;;;3.72;1.00;;;15.50;47.60;14.80;99317.00;;;;5070615;28;20398;-65
2022/04/08 04:28:52;;;;;;;4.05;0.93;;;15.50;47.60;14.80;99318.00;;;;5055660;28;20033;-65
2022/04/08 04:31:39;;;;;;;2.33;0.90;;;15.50;47.60;14.80;99327.00;;;;5042339;28;20486;-65
2022/04/08 04:34:26;;;;;;;3.42;0.70;;;15.50;48.30;14.80;99333.00;;;;5043212;28;20386;-65
2022/04/08 04:37:12;;;;;;;5.75;1.00;;;15.50;47.40;14.80;99338.00;;;;5042612;28;20585;-66
2022/04/08 04:39:58;;;;;;;2.85;0.73;;;15.50;47.40;14.80;99333.00;;;;5058918;28;20115;-65
2022/04/08 04:42:44;;;;;;;5.45;0.82;;;15.50;47.30;14.80;99343.00;;;;5053671;28;20430;-65
2022/04/08 04:45:30;;;;;;;5.95;0.93;;;15.50;47.20;14.70;99334.00;;;;5061161;28;20045;-65
2022/04/08 04:48:18;;;;;;;6.00;1.13;;;15.50;47.20;14.70;99333.00;;;;5058648;28;20509;-65
2022/04/08 04:51:04;;;;;;;6.78;1.10;;;15.40;46.90;14.70;99336.00;;;;5061811;28;20045;-65
2022/04/08 04:53:50;;;;;;;4.28;1.40;;;15.40;46.90;14.70;99325.00;;;;5062292;28;20044;-65
2022/04/08 04:56:36;;;;;;;8.90;1.75;;;15.40;46.70;14.70;99332.00;;;;5062915;28;20038;-65
2022/04/08 04:59:22;;;;;;;8.57;1.00;;;15.40;46.70;14.70;99330.00;;;;5062412;28;20088;-65
2022/04/08 05:02:08;;;;;;;4.97;0.90;;;15.40;46.70;14.70;99331.00;;;;5057056;28;20033;-65
2022/04/08 05:04:55;;;;;;;6.75;1.13;;;15.40;47.00;14.60;99339.00;;;;5060362;28;20115;-65
2022/04/08 05:07:41;;;;;;;6.57;0.80;;;15.40;47.00;14.70;99332.00;;;;5059226;28;20041;-65
2022/04/08 05:10:27;;;;;;;4.30;0.88;;;15.30;46.60;14.60;99335.00;;;;5043657;28;20095;-65
2022/04/08 05:13:13;;;;;;;5.25;1.20;;;15.30;46.80;14.60;99337.00;;;;5057393;28;20037;-65
2022/04/08 05:15:59;;;;;;;3.38;1.05;;;15.30;46.90;14.60;99350.00;;;;5040904;28;20033;-65
2022/04/08 05:18:45;;;;;;;4.55;1.00;;;15.30;46.80;14.60;99352.00;;;;5055299;28;20091;-65
2022/04/08 05:21:33;;;;;;;5.57;1.08;;;15.30;46.50;14.60;99356.00;;;;5057835;28;20104;-65
2022/04/08 05:24:19;;;;;;;;;;;15.30;46.80;14.60;99357.00;;;;5053879;28;20579;-65
2022/04/08 05:27:06;;;;;;;5.13;1.02;;;15.30;47.10;14.60;99364.00;;;;5059476;28;19935;-65
2022/04/08 05:29:52;;;;;;;4.47;1.08;;;15.30;46.90;14.60;99370.00;;;;5061220;28;20402;-65
2022/04/08 05:32:39;;;;;;;7.75;0.77;;;15.30;46.50;14.60;99374.00;;;;5045580;28;20032;-65
2022/04/08 05:35:25;;;;;;;7.05;1.83;;;15.30;46.50;14.60;99373.00;;;;5033240;28;20052;-65
2022/04/08 05:38:11;;;;;;;8.32;1.58;;;15.40;46.70;14.60;99375.00;;;;5055565;28;20426;-65
2022/04/08 05:40:57;;;;;;;7.10;1.13;;;15.30;46.70;14.60;99359.00;;;;5053657;28;20048;-65
2022/04/08 05:43:45;;;;;;;4.95;0.90;;;15.30;46.70;14.60;99376.00;;;;5056943;28;20045;-65
2022/04/08 05:46:31;;;;;;;3.95;1.05;;;15.30;46.60;14.60;99375.00;;;;5058272;28;20045;-65
2022/04/08 05:49:17;;;;;;;4.43;1.00;;;15.40;46.60;14.60;99379.00;;;;5057329;28;20099;-65
2022/04/08 05:52:04;;;;;;;5.40;1.02;;;15.30;46.50;14.60;99372.00;;;;5050630;28;20041;-65
2022/04/08 05:54:50;;;;;;;7.63;1.20;;;15.40;46.50;14.60;99381.00;;;;5058740;28;20041;-65
2022/04/08 05:57:40;;;;;;;3.97;1.20;;;15.30;46.40;14.60;99376.00;;;;5045819;28;20071;-65
2022/04/08 06:00:26;;;;;;;4.72;1.17;;;15.40;46.40;14.60;99377.00;;;;5045610;28;20545;-65
2022/04/08 06:03:12;;;;;;;4.10;0.95;;;15.40;46.50;14.60;99379.00;;;;5054666;28;20463;-65
2022/04/08 06:05:58;;;;;;;4.03;0.70;;;15.30;46.50;14.60;99376.00;;;;5058986;28;20044;-64
2022/04/08 06:08:44;;;;;;;6.47;1.20;;;15.40;46.50;14.60;99378.00;;;;5057323;28;20125;-65
2022/04/08 06:11:30;;;;;;;7.63;1.23;;;15.40;46.50;14.70;99375.00;;;;5058064;28;20036;-65
2022/04/08 06:14:16;;;;;;;7.13;1.25;;;15.40;46.20;14.60;99373.00;;;;5056147;28;20127;-64
2022/04/08 06:17:02;;;;;;;8.20;1.30;;;15.30;46.40;14.60;99376.00;;;;5053868;28;20398;-65
2022/04/08 06:19:50;;;;;;;7.03;1.05;;;15.40;46.40;14.60;99373.00;;;;5057202;28;20041;-64
2022/04/08 06:22:39;;;;;;;;;;;15.40;46.30;14.60;99379.00;;;;5055231;28;20040;-64
2022/04/08 06:25:25;;;;;;;5.95;1.13;;;15.40;46.70;14.60;99381.00;;;;5054747;28;20362;-65
2022/04/08 06:28:11;;;;;;;5.15;0.85;;;15.40;46.40;14.60;99379.00;;;;5054457;28;20098;-64
2022/04/08 06:30:57;;;;;;;4.32;0.85;;;15.40;46.30;14.60;99385.00;;;;5054618;28;20559;-65
2022/04/08 06:33:44;;;;;;;6.03;0.85;;;15.40;46.10;14.60;99395.00;;;;5059789;28;20052;-64
2022/04/08 06:36:30;;;;;;;4.05;0.93;;;15.30;46.30;14.60;99377.00;;;;5056891;28;20548;-64
2022/04/08 06:39:16;;;;;;;6.35;1.05;;;15.30;46.10;14.60;99381.00;;;;5059365;28;20394;-64
2022/04/08 06:42:02;;;;;;;3.05;0.82;;;15.30;46.10;14.60;99371.00;;;;5063214;28;20043;-64
2022/04/08 06:44:48;;;;;;;6.18;1.52;;;15.30;46.20;14.60;99370.00;;;;5057787;28;20044;-64
2022/04/08 06:47:44;;;;;;;6.40;1.25;;;15.30;46.10;14.50;99383.00;;;;5044708;28;20044;-64
2022/04/08 06:50:30;;;;;;;8.98;1.63;;;15.30;46.10;14.50;99386.00;;;;5055613;28;20041;-64
2022/04/08 06:53:36;;;;;;;4.88;0.90;;;15.30;46.10;14.50;99393.00;;;;5043919;28;20092;-64
2022/04/08 06:56:22;;;;;;;4.55;1.30;;;15.20;46.30;14.50;99391.00;;;;5063518;28;20183;-64
2022/04/08 06:59:08;;;;;;;5.60;1.25;;;15.20;46.30;14.50;99398.00;;;;5056078;28;20033;-64
2022/04/08 07:01:54;;;;;;;7.43;1.17;;;15.20;46.20;14.50;99397.00;;;;5055386;28;20033;-64
2022/04/08 07:04:40;;;;;;;5.40;1.10;;;15.20;46.40;14.50;99403.00;;;;5042518;28;20041;-64
2022/04/08 07:07:34;;;;;;;8.43;1.20;;;15.20;46.40;14.50;99396.00;;;;5057806;28;20048;-64
2022/04/08 07:10:20;;;;;;;4.95;1.13;;;15.20;47.20;14.50;99400.00;;;;5051990;28;20037;-64
2022/04/08 07:13:06;;;;;;;6.93;1.30;;;15.20;47.10;14.50;99398.00;;;;5051513;28;20402;-64
2022/04/08 07:15:53;;;;;;;6.43;1.15;;;15.20;46.50;14.50;99395.00;;;;5056186;28;20060;-64
2022/04/08 07:18:39;;;;;;;3.15;1.00;;;15.20;46.50;14.50;99391.00;;;;5055334;28;20122;-64
2022/04/08 07:21:26;;;;;;;8.20;1.13;;;15.20;46.60;14.50;99397.00;;;;5055455;28;20475;-64
2022/04/08 07:24:12;;;;;;;6.80;1.20;;;15.20;46.60;14.50;99396.00;;;;5054529;28;20044;-64
2022/04/08 07:26:58;;;;;;;5.47;0.98;;;15.20;46.50;14.50;99398.00;;;;5050074;28;20395;-64
2022/04/08 07:29:44;;;;;;;5.70;1.38;;;15.20;46.60;14.50;99389.00;;;;5059249;28;20049;-65
2022/04/08 07:32:30;;;;;;;4.55;1.10;;;15.20;46.40;14.50;99398.00;;;;5039936;28;20036;-64
2022/04/08 07:35:16;;;;;;;5.10;1.10;;;15.20;46.50;14.50;99399.00;;;;5053055;28;20486;-64
2022/04/08 07:38:03;;;;;;;3.45;0.93;;;15.60;46.70;14.50;99390.00;;;;5055952;28;20044;-64
2022/04/08 07:40:49;;;;;;;9.55;1.38;;;15.20;46.60;14.50;99377.00;;;;5040092;28;20072;-64
2022/04/08 07:43:35;;;;;;;7.30;1.75;;;15.20;47.10;14.50;99392.00;;;;5066059;28;20052;-64
2022/04/08 07:46:22;;;;;;;4.90;1.25;;;15.20;46.50;14.50;99386.00;;;;5058485;28;20402;-64
2022/04/08 07:49:08;;;;;;;6.13;1.20;;;15.20;46.50;14.50;99400.00;;;;5055479;28;20048;-64
2022/04/08 07:51:54;;;;;;;5.05;1.38;;;15.20;46.40;14.50;99389.00;;;;5053949;28;20048;-64
2022/04/08 07:54:40;;;;;;;5.68;1.45;;;15.20;46.50;14.50;99398.00;;;;5053973;28;20049;-64
2022/04/08 07:57:26;;;;;;;4.13;1.05;;;15.20;46.40;14.50;99399.00;;;;5062134;28;20043;-64
2022/04/08 08:00:14;;;;;;;5.60;1.08;;;15.30;46.40;14.50;99389.00;;;;5053761;28;20114;-64
2022/04/08 08:03:00;;;;;;;7.20;0.90;;;15.20;46.50;14.50;99391.00;;;;5058483;28;20120;-64
2022/04/08 08:05:47;;;;;;;5.47;0.73;;;15.20;46.40;14.50;99398.00;;;;5058541;28;20044;-65
2022/04/08 08:08:33;;;;;;;4.07;0.93;;;15.20;46.50;14.50;99394.00;;;;5046108;28;20044;-64
2022/04/08 08:11:19;;;;;;;3.85;1.05;;;15.20;46.50;14.50;99391.00;;;;5064777;28;20049;-64
2022/04/08 08:14:05;;;;;;;3.67;1.15;;;15.20;46.30;14.50;99379.00;;;;5054095;28;20585;-64
2022/04/08 08:16:51;;;;;;;6.38;1.10;;;15.30;46.30;14.50;99387.00;;;;5056161;28;20040;-64
2022/04/08 08:19:37;;;;;;;4.43;0.98;;;15.30;46.20;14.50;99384.00;;;;5066523;28;20032;-64
2022/04/08 08:22:24;;;;;;;3.60;0.93;;;15.30;46.40;14.50;99396.00;;;;5055683;28;20414;-64
2022/04/08 08:25:11;;;;;;;4.70;0.90;;;15.30;46.20;14.50;99398.00;;;;5060313;28;20051;-64
2022/04/08 08:28:04;;;;;;;7.38;1.20;;;15.30;46.30;14.50;99397.00;;;;5041747;28;20040;-64
2022/04/08 08:30:50;;;;;;;4.30;0.77;;;15.30;46.40;14.50;99400.00;;;;5050407;28;20040;-64
2022/04/08 08:33:36;;;;;;;5.82;0.90;;;15.30;46.40;14.50;99391.00;;;;5061402;28;20075;-64
2022/04/08 08:36:22;;;;;;;4.30;1.10;;;15.30;46.30;14.60;99389.00;;;;5063043;28;20044;-64
2022/04/08 08:39:08;;;;;;;5.03;1.10;;;15.30;46.20;14.60;99388.00;;;;5066338;28;20041;-64
2022/04/08 08:41:55;;;;;;;5.93;1.15;;;15.30;46.20;14.60;99388.00;;;;5053824;28;20442;-64
2022/04/08 08:44:41;;;;;;;3.27;1.00;;;15.30;46.20;14.60;99394.00;;;;5045273;28;20036;-64
2022/04/08 08:47:27;;;;;;;4.40;1.00;;;15.30;46.00;14.60;99399.00;;;;5061000;28;20044;-64
2022/04/08 08:50:14;;;;;;;3.83;0.80;;;15.40;45.90;14.60;99389.00;;;;5035051;28;20071;-64
2022/04/08 08:53:00;;;;;;;4.50;0.90;;;15.40;45.90;14.70;99394.00;;;;5046268;28;20049;-65
2022/04/08 08:55:48;;;;;;;2.35;0.70;;;15.40;45.60;14.60;99381.00;;;;5046977;28;20112;-64
2022/04/08 08:58:36;;;;;;;4.97;0.88;;;15.40;45.70;14.70;99398.00;;;;5055426;28;20059;-64
2022/04/08 09:01:22;;;;;;;2.15;0.90;;;15.40;45.60;14.70;99388.00;;;;5071775;28;20044;-65
2022/04/08 09:04:08;;;;;;;2.08;0.77;;;15.40;45.60;14.70;99391.00;;;;5061613;28;20044;-64
2022/04/08 09:06:55;;;;;;;6.95;1.05;;;15.40;45.30;14.70;99381.00;;;;5063541;28;20032;-65
2022/04/08 09:09:41;;;;;;;5.20;0.90;;;15.40;45.20;14.70;99375.00;;;;5043884;28;20127;-64
2022/04/08 09:12:28;;;;;;;6.68;1.13;;;15.40;45.20;14.70;99372.00;;;;5065631;28;20479;-64
2022/04/08 09:15:14;;;;;;;6.47;1.17;;;15.40;45.30;14.70;99375.00;;;;5042439;28;20045;-66
2022/04/08 09:18:13;;;;;;;4.95;0.90;;;15.40;45.40;14.70;99370.00;;;;5059016;28;20114;-64
2022/04/08 09:20:59;;;;;;;4.43;0.90;;;15.30;45.20;14.70;99363.00;;;;5053846;28;20063;-64
2022/04/08 09:23:45;;;;;;;3.65;0.77;;;15.40;45.30;14.70;99364.00;;;;5062973;28;20040;-64
2022/04/08 09:26:36;;;;;;;9.27;1.05;;;15.40;45.20;14.70;99352.00;;;;5072704;28;20048;-64
2022/04/08 09:29:23;;;;;;;3.90;0.77;;;15.40;45.10;14.70;99365.00;;;;5057290;28;20470;-64
2022/04/08 09:32:11;;;;;;;4.13;0.82;;;15.40;45.10;14.70;99350.00;;;;5047270;28;20483;-64
2022/04/08 09:34:57;;;;;;;3.40;0.88;;;15.40;45.10;14.70;99349.00;;;;5062703;28;20390;-64
2022/04/08 09:37:56;;;;;;;4.75;0.88;;;15.40;45.00;14.70;99348.00;;;;5053725;28;20048;-64
2022/04/08 09:40:42;;;;;;;3.13;0.75;;;15.40;45.10;14.70;99340.00;;;;5064861;28;20177;-64
2022/04/08 09:43:36;;;;;;;1.98;0.80;;;15.40;45.10;14.70;99351.00;;;;5052595;28;20044;-64
2022/04/08 09:46:22;;;;;;;3.63;0.80;;;15.40;44.90;14.70;99344.00;;;;5059132;28;20045;-64
2022/04/08 09:49:08;;;;;;;5.10;0.60;;;15.40;45.00;14.70;99339.00;;;;5061998;28;20048;-64
2022/04/08 09:51:54;;;;;;;3.47;0.73;;;15.40;45.00;14.70;99328.00;;;;5056256;28;20159;-64
2022/04/08 09:54:41;;;;;;;6.32;1.08;;;15.40;44.90;14.70;99334.00;;;;5045735;28;20123;-64
2022/04/08 09:57:27;;;;;;;4.53;1.00;;;15.40;44.70;14.70;99327.00;;;;5043209;28;20040;-64
2022/04/08 10:00:14;;;;;;;2.38;0.70;;;15.40;44.70;14.70;99323.00;;;;5042110;28;20040;-64
2022/04/08 10:03:00;;;;;;;3.20;0.90;;;15.40;44.50;14.70;99323.00;;;;5033437;28;20143;-65
2022/04/08 10:05:46;;;;;;;2.88;0.60;;;15.40;44.60;14.70;99307.00;;;;5039376;28;20033;-64
2022/04/08 10:08:33;;;;;;;3.50;0.80;;;15.40;44.40;14.70;99314.00;;;;5048050;28;20069;-64
2022/04/08 10:11:54;;;;;;;2.95;0.63;;;15.40;44.50;14.70;99317.00;;;;5059051;28;20049;-64
2022/04/08 10:14:58;;;;;;;4.63;1.20;;;15.40;44.30;14.70;99298.00;;;;5033178;28;20127;-64
2022/04/08 10:17:59;;;;;;;3.88;0.90;;;15.40;44.30;14.60;99313.00;;;;5059462;28;20044;-64
2022/04/08 10:20:45;;;;;;;2.67;0.82;;;15.40;44.00;14.70;99314.00;;;;5039719;28;20040;-64
2022/04/08 10:23:37;;;;;;;6.53;1.00;;;15.40;44.20;14.70;99309.00;;;;5058239;28;20037;-64
2022/04/08 10:26:26;;;;;;;1.95;0.73;;;15.40;44.10;14.70;99300.00;;;;5043345;28;20068;-64
2022/04/08 10:29:13;;;;;;;6.10;1.05;;;15.40;44.00;14.70;99294.00;;;;5025624;28;20071;-64
2022/04/08 10:32:02;;;;;;;2.22;0.70;;;15.40;43.80;14.70;99288.00;;;;5059489;28;20040;-64
2022/04/08 10:34:49;;;;;;;2.58;0.80;;;15.40;43.80;14.70;99293.00;;;;5058026;28;20040;-64
2022/04/08 10:37:35;;;;;;;1.00;0.33;;;15.40;44.00;14.70;99288.00;;;;5056262;28;20038;-64
2022/04/08 10:40:21;;;;;;;4.95;0.80;;;15.50;44.10;14.70;99300.00;;;;5054389;28;20036;-65
2022/04/08 10:43:09;;;;;;;3.35;0.80;;;15.50;43.90;14.70;99289.00;;;;5026327;28;20545;-64
2022/04/08 10:45:57;;;;;;;1.42;0.68;;;15.50;43.90;14.70;99306.00;;;;5059256;28;20055;-64
2022/04/08 10:48:43;;;;;;;4.18;1.13;;;15.50;44.80;14.70;99292.00;;;;5064491;28;20040;-64
2022/04/08 10:51:30;;;;;;;2.72;0.80;;;15.50;43.70;14.70;99293.00;;;;5055446;28;20056;-64
2022/04/08 10:54:16;;;;;;;3.90;1.00;;;15.50;43.90;14.70;99289.00;;;;5043475;28;20055;-64
2022/04/08 10:57:03;;;;;;;4.50;0.60;;;15.50;43.60;14.70;99277.00;;;;5051750;28;20039;-64
2022/04/08 10:59:55;;;;;;;4.20;0.60;;;15.50;43.60;14.70;99277.00;;;;5050734;28;20091;-65
2022/04/08 11:02:43;;;;;;;5.47;0.88;;;15.50;43.50;14.80;99289.00;;;;5042952;28;20530;-64
2022/04/08 11:05:29;;;;;;;2.95;0.57;;;15.60;43.60;14.70;99278.00;;;;5058614;28;20131;-64
2022/04/08 11:08:15;;;;;;;5.50;0.77;;;15.60;43.60;14.80;99278.00;;;;5047275;28;20418;-65
2022/04/08 11:11:01;;;;;;;2.28;0.80;;;15.60;43.50;14.80;99283.00;;;;5045181;28;20041;-64
2022/04/08 11:13:56;;;;;;;2.08;0.70;;;15.60;43.40;14.80;99284.00;;;;5056013;28;20058;-65
2022/04/08 11:16:42;;;;;;;4.72;1.05;;;15.60;43.00;14.80;99277.00;;;;5037848;28;20549;-64
2022/04/08 11:19:29;;;;;;;2.60;0.57;;;15.60;43.10;14.80;99289.00;;;;5051104;28;20664;-64
2022/04/08 11:22:15;;;;;;;1.58;0.60;;;15.60;43.00;14.80;99276.00;;;;5045104;28;20473;-64
2022/04/08 11:25:01;;;;;;;3.97;0.77;;;15.60;42.90;14.80;99277.00;;;;5059587;28;20036;-65
2022/04/08 11:28:00;;;;;;;3.03;0.65;;;15.60;42.90;14.80;99277.00;;;;5041145;28;20457;-64
2022/04/08 11:30:46;;;;;;;;;;;15.60;42.90;14.80;99265.00;;;;5054882;28;20050;-64
2022/04/08 11:33:32;;;;;;;3.03;0.50;;;15.60;43.60;14.80;99272.00;;;;5057865;28;20140;-64
2022/04/08 11:36:22;;;;;;;2.08;0.63;;;15.60;43.00;14.80;99280.00;;;;5051737;28;20056;-64
2022/04/08 11:39:08;;;;;;;3.10;0.90;;;15.60;42.90;14.80;99284.00;;;;5057909;28;20044;-64
2022/04/08 11:41:56;;;;;;;3.33;0.70;;;15.60;43.20;14.80;99280.00;;;;5057093;28;20076;-64
2022/04/08 11:44:43;;;;;;;2.85;1.00;;;15.60;43.20;14.80;99292.00;;;;5051648;28;20099;-64
2022/04/08 11:47:31;;;;;;;3.60;0.90;;;15.60;43.20;14.80;99278.00;;;;5043945;28;20439;-64
2022/04/08 11:50:28;;;;;;;4.53;0.75;;;15.60;43.10;14.80;99266.00;;;;5052947;28;20048;-64
2022/04/08 11:53:16;;;;;;;2.35;0.80;;;15.60;42.80;14.80;99271.00;;;;5040763;28;20048;-64
2022/04/08 11:56:04;;;;;;;1.75;0.80;;;15.60;43.10;14.80;99285.00;;;;5054486;28;20080;-64
2022/04/08 11:59:00;;;;;;;;;;;15.60;43.20;14.80;99260.00;;;;5057989;28;20041;-64
2022/04/08 12:01:46;;;;;;;4.82;0.80;;;15.70;43.80;14.80;99261.00;;;;5057170;28;19986;-64
2022/04/08 12:04:33;;;;;;;3.25;0.70;;;15.80;43.10;14.90;99245.00;;;;5057041;28;20049;-64
2022/04/08 12:07:28;;;;;;;2.95;0.82;;;15.70;43.30;14.90;99247.00;;;;5057392;28;20394;-64
2022/04/08 12:10:14;;;;;;;2.85;0.65;;;15.70;42.90;14.90;99233.00;;;;5058041;28;20051;-64
2022/04/08 12:13:00;;;;;;;2.33;0.60;;;15.70;43.00;14.90;99234.00;;;;5031901;28;20171;-64
2022/04/08 12:15:48;;;;;;;6.07;1.02;;;15.70;43.10;14.90;99234.00;;;;5054166;28;20391;-64
2022/04/08 12:18:34;;;;;;;4.30;0.93;;;15.70;43.20;14.90;99238.00;;;;5046320;28;20043;-64
2022/04/08 12:21:23;;;;;;;1.88;0.60;;;15.70;43.20;14.90;99235.00;;;;5049176;28;21100;-64
2022/04/08 12:24:09;;;;;;;2.83;0.90;;;15.70;43.10;14.90;99236.00;;;;5053280;28;20045;-64